Time;durP1;ratioP1;P1;durP2;ratioP2;P2;SDS_P1;SDS_P2;PMS_P1;PMS_P2;Temp;Humidity;BMP_temperature;BMP_pressure;BME280_temperature;BME280_humidity;BME280_pressure;Samples;Min_cycle;Max_cycle;Signal;HPM_P1;HPM_P2
2023/03/23 00:01:19;;;;;;;42.73;24.87;;;;;;;8.72;79.94;99626.60;1740146;82;25669;-46
2023/03/23 00:03:43;;;;;;;51.42;23.47;;;;;;;8.73;79.91;99623.34;1739599;82;25714;-47
2023/03/23 00:06:10;;;;;;;45.30;24.25;;;;;;;8.73;79.94;99624.12;1740799;82;25574;-46
2023/03/23 00:08:44;;;;;;;47.45;24.07;;;;;;;8.74;79.98;99617.64;1740843;82;25584;-46
2023/03/23 00:11:14;;;;;;;48.17;25.15;;;;;;;8.73;80.03;99613.91;1740899;81;27522;-46
2023/03/23 00:13:43;;;;;;;47.13;23.95;;;;;;;8.73;80.01;99617.39;1740744;82;25397;-46
2023/03/23 00:16:20;;;;;;;43.28;23.57;;;;;;;8.73;80.01;99617.95;1740908;82;25483;-45
2023/03/23 00:18:39;;;;;;;41.37;24.12;;;;;;;8.72;80.22;99619.08;1739211;82;25619;-45
2023/03/23 00:21:08;;;;;;;45.30;23.62;;;;;;;8.73;80.30;99617.39;1740799;82;25477;-46
2023/03/23 00:23:33;;;;;;;43.55;23.12;;;;;;;8.72;80.20;99615.81;1740533;82;27516;-46
2023/03/23 00:26:00;;;;;;;47.58;25.72;;;;;;;8.72;80.16;99615.81;1740714;82;25701;-46
2023/03/23 00:28:27;;;;;;;45.28;23.12;;;;;;;8.71;80.03;99614.78;1711414;82;25725;-45
2023/03/23 00:31:02;;;;;;;44.77;24.02;;;;;;;8.70;80.23;99613.98;1740729;82;25626;-46
2023/03/23 00:33:37;;;;;;;44.03;22.25;;;;;;;8.70;80.19;99606.44;1750715;81;25429;-45
2023/03/23 00:36:08;;;;;;;41.23;22.80;;;;;;;8.69;80.25;99604.86;1759964;81;27493;-45
2023/03/23 00:38:37;;;;;;;41.23;24.18;;;;;;;8.67;80.34;99610.56;1759953;81;27375;-45
2023/03/23 00:41:04;;;;;;;44.30;23.83;;;;;;;8.66;80.48;99602.78;1760037;81;25585;-46
2023/03/23 00:43:35;;;;;;;44.20;23.95;;;;;;;8.65;80.49;99603.88;1760020;81;25623;-45
2023/03/23 00:46:08;;;;;;;40.25;22.77;;;;;;;8.62;80.46;99602.63;1759973;81;25450;-46
2023/03/23 00:48:32;;;;;;;45.10;25.10;;;;;;;8.60;80.72;99596.75;1759405;81;27665;-46
2023/03/23 00:51:01;;;;;;;47.13;24.72;;;;;;;8.58;80.71;99595.72;1736477;81;25755;-46
2023/03/23 00:53:27;;;;;;;44.60;25.60;;;;;;;8.56;80.83;99595.77;1760034;81;25587;-46
2023/03/23 00:55:53;;;;;;;48.52;25.08;;;;;;;8.55;80.87;99591.50;1760002;81;25555;-48
2023/03/23 00:58:19;;;;;;;47.85;25.00;;;;;;;8.53;80.97;99592.34;1760077;81;32708;-45
2023/03/23 01:00:45;;;;;;;42.35;23.12;;;;;;;8.51;81.14;99589.98;1736288;81;27487;-44
2023/03/23 01:03:12;;;;;;;43.70;24.55;;;;;;;8.52;80.91;99586.17;1759942;81;25469;-45
2023/03/23 01:05:39;;;;;;;44.18;25.35;;;;;;;8.53;81.20;99590.47;1759986;81;25499;-47
2023/03/23 01:08:06;;;;;;;42.17;24.27;;;;;;;8.53;81.50;99585.61;1760036;80;25497;-47
2023/03/23 01:10:33;;;;;;;43.87;24.12;;;;;;;8.54;81.46;99583.95;1760149;81;25456;-46
2023/03/23 01:13:00;;;;;;;43.38;23.47;;;;;;;8.54;81.36;99578.56;1760140;81;27482;-45
2023/03/23 01:15:28;;;;;;;42.93;23.57;;;;;;;8.55;81.36;99572.08;1760067;81;25393;-46
2023/03/23 01:17:55;;;;;;;43.78;24.15;;;;;;;8.55;81.56;99573.42;1760159;81;25198;-45
2023/03/23 01:20:24;;;;;;;50.23;24.77;;;;;;;8.57;81.63;99570.42;1760106;81;25551;-46
2023/03/23 01:22:50;;;;;;;45.88;23.77;;;;;;;8.58;81.75;99564.72;1760182;81;25626;-47
2023/03/23 01:25:17;;;;;;;46.73;23.55;;;;;;;8.58;81.84;99568.76;1760205;81;27548;-47
2023/03/23 01:27:43;;;;;;;48.60;24.47;;;;;;;8.61;81.71;99565.97;1760025;81;25626;-46
2023/03/23 01:30:12;;;;;;;40.70;23.27;;;;;;;8.63;81.91;99561.06;1760172;81;25436;-46
2023/03/23 01:32:40;;;;;;;43.83;24.20;;;;;;;8.65;81.67;99564.27;1760151;81;25543;-48
2023/03/23 01:35:07;;;;;;;41.45;23.35;;;;;;;8.66;81.69;99565.83;1760188;81;25586;-46
2023/03/23 01:37:33;;;;;;;41.35;24.12;;;;;;;8.67;81.66;99565.30;1760123;81;28069;-48
2023/03/23 01:40:00;;;;;;;46.68;24.12;;;;;;;8.69;81.68;99567.12;1759999;81;27296;-48
2023/03/23 01:42:31;;;;;;;44.33;24.02;;;;;;;8.71;81.69;99566.24;1760094;81;25598;-45
2023/03/23 01:45:29;;;;;;;47.70;25.72;;;;;;;8.71;81.69;99571.08;1759351;81;26101;-47
2023/03/23 01:48:23;;;;;;;43.60;23.07;;;;;;;8.74;81.63;99575.84;1760161;81;25653;-47
2023/03/23 01:51:15;;;;;;;49.35;24.37;;;;;;;8.73;81.65;99572.89;1760090;81;27521;-47
2023/03/23 01:53:46;;;;;;;44.93;23.95;;;;;;;8.75;81.87;99577.45;1736294;81;25412;-45
2023/03/23 01:56:18;;;;;;;41.77;23.07;;;;;;;8.75;81.54;99562.61;1760063;81;25513;-46
2023/03/23 01:58:46;;;;;;;41.83;23.10;;;;;;;8.76;81.62;99576.32;1760045;81;26015;-46
2023/03/23 02:01:15;;;;;;;41.83;22.65;;;;;;;8.75;81.61;99572.59;1760218;81;25595;-47
2023/03/23 02:03:45;;;;;;;41.95;24.55;;;;;;;8.75;81.57;99568.55;1760153;81;29709;-48
2023/03/23 02:06:12;;;;;;;41.63;23.60;;;;;;;8.74;81.34;99566.41;1760102;81;25480;-47
2023/03/23 02:08:40;;;;;;;44.73;23.50;;;;;;;8.72;81.38;99563.80;1759975;81;25412;-45
2023/03/23 02:11:20;;;;;;;41.92;24.27;;;;;;;8.69;81.50;99562.52;1736439;81;27641;-45
2023/03/23 02:13:48;;;;;;;39.10;21.62;;;;;;;8.69;81.50;99562.52;1760202;81;25567;-46
2023/03/23 02:16:35;;;;;;;40.67;23.50;;;;;;;8.68;81.33;99553.39;1760032;81;27530;-47
2023/03/23 02:19:36;;;;;;;43.78;23.98;;;;;;;8.64;81.27;99553.22;1759883;81;25537;-47
2023/03/23 02:22:39;;;;;;;42.45;23.77;;;;;;;8.62;81.39;99542.53;1760063;81;25549;-46
2023/03/23 02:25:22;;;;;;;39.67;23.10;;;;;;;8.59;81.51;99547.42;1760102;81;25569;-46
2023/03/23 02:27:56;;;;;;;44.55;23.77;;;;;;;8.56;81.77;99541.86;1759796;81;25556;-48
2023/03/23 02:30:43;;;;;;;45.98;24.67;;;;;;;8.52;81.65;99541.70;1760086;81;28412;-46
2023/03/23 02:33:39;;;;;;;44.27;25.35;;;;;;;8.49;81.79;99542.88;1759955;81;25886;-49
2023/03/23 02:36:34;;;;;;;43.10;23.73;;;;;;;8.47;82.02;99539.70;1760033;81;25411;-48
2023/03/23 02:39:26;;;;;;;43.75;23.35;;;;;;;8.43;82.62;99530.11;1760025;81;25591;-47
2023/03/23 02:41:58;;;;;;;42.73;22.95;;;;;;;8.39;82.24;99531.27;1760080;81;25497;-50
2023/03/23 02:44:29;;;;;;;48.17;24.63;;;;;;;8.37;82.52;99525.37;1760057;81;27485;-48
2023/03/23 02:46:59;;;;;;;45.10;23.22;;;;;;;8.35;82.34;99526.23;1759919;81;25781;-46
2023/03/23 02:49:29;;;;;;;47.23;24.60;;;;;;;8.34;82.70;99532.75;1759993;81;25537;-46
2023/03/23 02:51:59;;;;;;;45.67;23.80;;;;;;;8.33;82.71;99527.67;1759999;81;26056;-48
2023/03/23 02:54:27;;;;;;;46.63;23.98;;;;;;;8.33;82.77;99536.55;1760117;81;25445;-47
2023/03/23 02:56:57;;;;;;;44.10;24.55;;;;;;;8.32;82.87;99537.64;1760012;81;28416;-50
2023/03/23 02:59:23;;;;;;;42.93;23.92;;;;;;;8.31;82.84;99523.94;1760081;81;25628;-44
2023/03/23 03:01:54;;;;;;;46.25;24.52;;;;;;;8.31;82.92;99532.55;1759986;81;25404;-47
2023/03/23 03:04:25;;;;;;;44.63;23.62;;;;;;;8.31;83.08;99533.38;1759897;81;25573;-48
2023/03/23 03:07:25;;;;;;;42.80;24.32;;;;;;;8.30;83.27;99520.99;1760033;81;25468;-46
2023/03/23 03:10:06;;;;;;;42.45;23.87;;;;;;;8.30;83.54;99517.52;1759711;81;27711;-45
2023/03/23 03:13:05;;;;;;;43.00;24.50;;;;;;;8.30;83.23;99523.69;1759937;81;25627;-46
2023/03/23 03:16:08;;;;;;;45.93;23.10;;;;;;;8.32;83.50;99526.86;1760264;81;25650;-44
2023/03/23 03:18:45;;;;;;;46.70;23.45;;;;;;;8.31;83.32;99526.63;1759921;81;25539;-47
2023/03/23 03:21:15;;;;;;;52.17;25.05;;;;;;;8.33;83.58;99535.19;1759971;81;25410;-45
2023/03/23 03:23:44;;;;;;;43.35;24.05;;;;;;;8.32;83.53;99529.55;1759974;81;27566;-45
2023/03/23 03:26:17;;;;;;;41.95;23.70;;;;;;;8.31;83.57;99532.02;1760024;81;25400;-46
2023/03/23 03:28:42;;;;;;;52.00;26.97;;;;;;;8.31;83.46;99523.13;1760022;81;25467;-46
2023/03/23 03:31:09;;;;;;;43.10;22.27;;;;;;;8.30;83.43;99526.38;1759852;81;27730;-46
2023/03/23 03:33:35;;;;;;;40.48;23.07;;;;;;;8.30;83.48;99526.95;1759892;81;25479;-49
2023/03/23 03:36:08;;;;;;;47.83;23.95;;;;;;;8.30;83.47;99528.29;1759983;81;28161;-50
2023/03/23 03:38:48;;;;;;;46.25;24.45;;;;;;;8.29;83.51;99529.39;1759867;81;25455;-49
2023/03/23 03:41:15;;;;;;;45.88;24.00;;;;;;;8.27;83.85;99536.99;1759953;81;25436;-48
2023/03/23 03:43:42;;;;;;;43.38;23.18;;;;;;;8.25;83.61;99530.56;1759929;81;25574;-50
2023/03/23 03:46:08;;;;;;;39.35;22.15;;;;;;;8.26;83.69;99539.44;1760116;81;25596;-49
2023/03/23 03:48:35;;;;;;;39.35;23.40;;;;;;;8.23;83.48;99537.61;1759956;81;27533;-46
2023/03/23 03:51:02;;;;;;;45.90;23.15;;;;;;;8.20;83.75;99547.66;1759818;81;25566;-45
2023/03/23 03:53:30;;;;;;;41.10;22.73;;;;;;;8.18;83.93;99550.44;1759914;81;25469;-47
2023/03/23 03:55:59;;;;;;;41.13;22.82;;;;;;;8.16;83.92;99549.95;1759926;81;25582;-46
2023/03/23 03:58:36;;;;;;;43.83;24.20;;;;;;;8.12;83.81;99543.58;1760203;81;25419;-46
2023/03/23 04:01:01;;;;;;;45.33;24.02;;;;;;;8.09;83.93;99538.81;1759620;81;27560;-45
2023/03/23 04:03:27;;;;;;;46.08;22.27;;;;;;;8.05;83.74;99539.98;1759880;81;25401;-45
2023/03/23 04:05:55;;;;;;;44.00;23.52;;;;;;;7.99;83.96;99533.95;1759902;81;25397;-45
2023/03/23 04:08:26;;;;;;;41.23;22.55;;;;;;;7.96;84.11;99529.73;1759898;81;25557;-45
2023/03/23 04:10:53;;;;;;;41.37;22.77;;;;;;;7.92;83.92;99525.52;1759903;81;25460;-46
2023/03/23 04:13:21;;;;;;;44.70;24.18;;;;;;;7.86;84.17;99516.77;1759949;81;27464;-45
2023/03/23 04:15:47;;;;;;;39.67;23.22;;;;;;;7.84;84.29;99518.98;1759860;81;25822;-46
2023/03/23 04:18:17;;;;;;;41.60;23.35;;;;;;;7.80;84.33;99517.23;1759925;81;25402;-45
2023/03/23 04:20:47;;;;;;;39.90;23.05;;;;;;;7.76;84.67;99516.25;1736342;81;25543;-46
2023/03/23 04:23:22;;;;;;;43.80;23.73;;;;;;;7.73;84.46;99516.86;1759944;81;25397;-45
2023/03/23 04:25:51;;;;;;;48.50;24.30;;;;;;;7.70;84.87;99512.91;1759936;81;27405;-46
2023/03/23 04:28:18;;;;;;;;;;;;;;;7.67;85.03;99516.98;1762456;81;25833;-46
2023/03/23 04:30:48;;;;;;;42.40;23.35;;;;;;;7.65;85.20;99519.76;1759888;81;25646;-48
2023/03/23 04:33:15;;;;;;;45.40;24.15;;;;;;;7.61;85.07;99512.04;1759990;81;25585;-46
2023/03/23 04:35:45;;;;;;;46.70;24.05;;;;;;;7.59;85.38;99507.52;1759864;81;25573;-46
2023/03/23 04:38:13;;;;;;;;;;;;;;;7.58;85.47;99523.45;1762537;80;27482;-46
2023/03/23 04:40:42;;;;;;;42.10;22.90;;;;;;;7.58;85.50;99523.45;1759858;81;25630;-47
2023/03/23 04:43:08;;;;;;;45.05;24.18;;;;;;;7.53;85.58;99512.81;1760193;81;25465;-45
2023/03/23 04:45:37;;;;;;;41.83;22.75;;;;;;;7.51;85.69;99517.68;1760016;81;25712;-46
2023/03/23 04:48:06;;;;;;;41.20;23.40;;;;;;;7.47;85.51;99519.66;1760100;81;25621;-46
2023/03/23 04:50:33;;;;;;;44.35;25.05;;;;;;;7.46;85.79;99516.72;1760185;81;27399;-47
2023/03/23 04:53:04;;;;;;;39.60;23.20;;;;;;;7.44;85.88;99514.89;1760020;81;25632;-46
2023/03/23 04:55:36;;;;;;;42.48;23.40;;;;;;;7.42;86.10;99507.68;1760108;81;25487;-48
2023/03/23 04:58:06;;;;;;;43.35;24.25;;;;;;;7.42;85.94;99520.31;1760034;81;25643;-46
2023/03/23 05:00:35;;;;;;;42.98;23.50;;;;;;;7.40;86.34;99515.80;1760106;81;25376;-47
2023/03/23 05:03:02;;;;;;;43.52;24.55;;;;;;;7.39;86.42;99515.02;1760098;81;27667;-45
2023/03/23 05:05:32;;;;;;;44.18;24.37;;;;;;;7.37;86.52;99511.84;1759983;81;25772;-45
2023/03/23 05:07:59;;;;;;;41.02;23.70;;;;;;;7.37;86.67;99511.84;1760061;81;25393;-49
2023/03/23 05:10:25;;;;;;;40.98;22.98;;;;;;;7.37;86.74;99499.73;1759983;81;25572;-45
2023/03/23 05:12:54;;;;;;;41.75;23.83;;;;;;;7.37;86.91;99499.73;1760095;81;25601;-46
2023/03/23 05:15:21;;;;;;;40.20;23.02;;;;;;;7.38;86.82;99501.86;1760334;81;27427;-48
2023/03/23 05:17:48;;;;;;;41.60;24.07;;;;;;;7.38;87.24;99505.34;1759979;81;25652;-45
2023/03/23 05:20:20;;;;;;;43.98;22.52;;;;;;;7.41;87.08;99505.30;1760023;81;25464;-47
2023/03/23 05:22:49;;;;;;;46.55;24.63;;;;;;;7.43;87.46;99517.33;1760043;81;25522;-46
2023/03/23 05:25:22;;;;;;;41.90;24.00;;;;;;;7.46;87.85;99514.02;1760084;81;25560;-46
2023/03/23 05:27:52;;;;;;;41.88;24.45;;;;;;;7.48;87.78;99504.30;1760088;81;27460;-46
2023/03/23 05:30:16;;;;;;;40.17;23.07;;;;;;;7.54;87.78;99507.66;1759524;81;25418;-46
2023/03/23 05:32:44;;;;;;;38.88;23.40;;;;;;;7.58;87.72;99508.09;1760027;81;25540;-49
2023/03/23 05:35:12;;;;;;;41.00;24.10;;;;;;;7.64;88.13;99511.43;1748072;81;25810;-46
2023/03/23 05:37:39;;;;;;;43.17;24.00;;;;;;;7.67;87.82;99510.82;1740880;82;25604;-46
2023/03/23 05:40:07;;;;;;;37.23;22.62;;;;;;;7.73;87.78;99508.78;1740816;82;27544;-47
2023/03/23 05:42:35;;;;;;;44.15;23.02;;;;;;;7.79;87.83;99505.66;1740779;82;25659;-45
2023/03/23 05:45:04;;;;;;;39.87;22.90;;;;;;;7.84;87.80;99498.79;1741153;82;25553;-46
2023/03/23 05:47:31;;;;;;;41.77;23.00;;;;;;;7.91;87.92;99497.00;1740945;82;25582;-47
2023/03/23 05:49:58;;;;;;;38.80;23.07;;;;;;;7.96;87.71;99504.94;1740844;82;25602;-45
2023/03/23 05:52:25;;;;;;;40.63;21.60;;;;;;;8.03;87.85;99507.19;1740861;82;27625;-45
2023/03/23 05:54:53;;;;;;;40.48;22.42;;;;;;;8.12;87.73;99511.26;1740688;82;25646;-44
2023/03/23 05:57:23;;;;;;;39.88;21.68;;;;;;;8.18;87.56;99512.16;1740845;82;25412;-46
2023/03/23 05:59:49;;;;;;;41.30;22.07;;;;;;;8.24;87.49;99511.48;1740892;82;27735;-45
2023/03/23 06:02:16;;;;;;;38.88;21.30;;;;;;;8.33;87.48;99515.55;1740853;82;25586;-45
2023/03/23 06:04:43;;;;;;;43.20;22.20;;;;;;;8.38;87.29;99512.70;1740841;82;26973;-45
2023/03/23 06:07:14;;;;;;;37.13;21.40;;;;;;;8.46;87.13;99517.33;1740718;82;25448;-45
2023/03/23 06:09:42;;;;;;;38.95;21.52;;;;;;;8.52;86.89;99513.95;1740851;82;25562;-46
2023/03/23 06:12:09;;;;;;;36.60;21.35;;;;;;;8.60;86.83;99517.23;1740828;82;25578;-46
2023/03/23 06:14:38;;;;;;;34.85;20.62;;;;;;;8.67;86.59;99527.55;1740801;82;25411;-46
2023/03/23 06:17:05;;;;;;;35.83;19.87;;;;;;;8.72;86.39;99522.01;1740421;82;27531;-45
2023/03/23 06:19:34;;;;;;;34.48;20.77;;;;;;;8.78;86.20;99523.43;1739846;82;25794;-45
2023/03/23 06:22:02;;;;;;;34.23;20.10;;;;;;;8.86;86.05;99532.09;1740819;82;25570;-47
2023/03/23 06:24:28;;;;;;;31.73;20.17;;;;;;;8.92;85.82;99525.98;1740842;82;25580;-46
2023/03/23 06:26:55;;;;;;;38.00;19.65;;;;;;;9.01;85.70;99521.93;1740965;82;25567;-46
2023/03/23 06:29:21;;;;;;;35.40;20.35;;;;;;;9.10;85.59;99528.14;1740348;82;27431;-47
2023/03/23 06:31:52;;;;;;;29.80;18.00;;;;;;;9.16;85.38;99521.48;1740486;82;27362;-45
2023/03/23 06:34:19;;;;;;;31.87;19.45;;;;;;;9.26;85.14;99523.05;1743233;81;25675;-46
2023/03/23 06:36:45;;;;;;;29.63;18.15;;;;;;;9.35;84.91;99518.45;1760025;81;25644;-49
2023/03/23 06:39:12;;;;;;;36.60;18.55;;;;;;;9.43;84.58;99527.63;1760027;81;25617;-47
2023/03/23 06:41:38;;;;;;;33.13;18.70;;;;;;;9.49;84.48;99527.72;1759983;81;27624;-47
2023/03/23 06:44:08;;;;;;;33.02;18.67;;;;;;;9.58;84.23;99529.83;1759921;81;25587;-45
2023/03/23 06:46:33;;;;;;;32.85;17.62;;;;;;;9.61;83.79;99533.81;1760005;81;25385;-46
2023/03/23 06:49:00;;;;;;;30.57;17.37;;;;;;;9.68;83.96;99548.39;1759163;81;25565;-46
2023/03/23 06:51:26;;;;;;;29.25;16.35;;;;;;;9.84;84.35;99547.88;1759360;81;25821;-46
2023/03/23 06:53:52;;;;;;;33.80;18.05;;;;;;;10.02;84.31;99536.48;1759988;81;27488;-47
2023/03/23 06:56:18;;;;;;;28.95;17.35;;;;;;;10.26;84.43;99546.14;1759503;81;25861;-47
2023/03/23 06:58:48;;;;;;;30.90;17.90;;;;;;;10.50;83.22;99541.30;1759256;81;25698;-47
2023/03/23 07:01:14;;;;;;;;;;;;;;;10.69;82.44;99534.89;1762669;81;25681;-47
2023/03/23 07:03:42;;;;;;;33.55;16.67;;;;;;;10.88;81.85;99532.31;1760012;81;25437;-49
2023/03/23 07:06:10;;;;;;;29.32;16.60;;;;;;;11.03;82.23;99537.13;1759962;81;27458;-48
2023/03/23 07:08:36;;;;;;;23.70;15.50;;;;;;;11.18;81.53;99527.63;1760007;81;25574;-48
2023/03/23 07:11:05;;;;;;;25.57;14.38;;;;;;;11.30;80.58;99532.31;1759965;81;25531;-48
2023/03/23 07:13:31;;;;;;;26.77;15.80;;;;;;;11.42;79.77;99537.77;1759970;81;25492;-49
2023/03/23 07:15:59;;;;;;;27.27;15.00;;;;;;;11.52;79.92;99531.94;1760022;81;25569;-47
2023/03/23 07:18:27;;;;;;;25.82;15.40;;;;;;;11.80;79.60;99530.54;1759984;81;27516;-48
2023/03/23 07:20:54;;;;;;;22.58;14.60;;;;;;;12.00;79.10;99535.70;1759898;81;25773;-48
2023/03/23 07:23:21;;;;;;;21.77;14.07;;;;;;;12.20;77.57;99528.03;1760014;81;25622;-51
2023/03/23 07:25:48;;;;;;;21.85;14.25;;;;;;;12.44;76.83;99531.88;1759941;81;25583;-48
2023/03/23 07:28:16;;;;;;;20.27;12.80;;;;;;;12.56;76.05;99529.16;1759999;81;25613;-49
2023/03/23 07:30:43;;;;;;;20.70;12.65;;;;;;;12.71;74.73;99533.10;1759886;81;27582;-47
2023/03/23 07:33:10;;;;;;;26.15;14.10;;;;;;;12.96;74.47;99537.14;1759942;81;25425;-48
2023/03/23 07:35:37;;;;;;;24.30;14.43;;;;;;;13.30;75.59;99546.64;1759904;81;25569;-48
2023/03/23 07:38:06;;;;;;;21.93;13.55;;;;;;;13.71;73.96;99547.97;1759930;81;25627;-47
2023/03/23 07:40:33;;;;;;;21.45;11.88;;;;;;;14.20;74.32;99538.92;1760132;81;25526;-47
2023/03/23 07:43:01;;;;;;;20.68;12.53;;;;;;;14.51;72.28;99540.03;1759948;81;28636;-47
2023/03/23 07:45:29;;;;;;;20.72;12.35;;;;;;;14.79;71.58;99545.14;1759905;81;25413;-48
2023/03/23 07:47:56;;;;;;;26.40;13.40;;;;;;;14.86;70.14;99543.36;1759287;81;25606;-47
2023/03/23 07:50:24;;;;;;;26.60;11.70;;;;;;;14.92;69.48;99546.61;1759902;81;25574;-47
2023/03/23 07:52:54;;;;;;;24.02;11.70;;;;;;;15.17;67.80;99555.86;1759935;81;25461;-51
2023/03/23 07:55:21;;;;;;;;;;;;;;;15.28;67.71;99548.12;1762632;81;27501;-47
2023/03/23 07:57:49;;;;;;;21.40;11.57;;;;;;;15.36;65.96;99557.80;1759905;81;25619;-48
2023/03/23 08:00:20;;;;;;;22.75;11.40;;;;;;;15.62;67.28;99548.39;1759976;81;25480;-49
2023/03/23 08:02:48;;;;;;;19.17;11.55;;;;;;;16.04;65.69;99548.20;1759530;81;26064;-46
2023/03/23 08:05:16;;;;;;;18.42;11.48;;;;;;;16.65;63.96;99546.41;1759173;81;25463;-46
2023/03/23 08:07:44;;;;;;;20.10;10.85;;;;;;;16.61;62.95;99540.11;1759934;81;27486;-48
2023/03/23 08:10:14;;;;;;;16.93;10.43;;;;;;;16.54;63.94;99534.56;1759832;81;25576;-47
2023/03/23 08:12:42;;;;;;;18.42;10.93;;;;;;;16.84;64.31;99536.00;1759334;81;25623;-47
2023/03/23 08:15:14;;;;;;;16.50;10.00;;;;;;;16.88;62.00;99533.31;1759944;81;25568;-49
2023/03/23 08:17:42;;;;;;;13.62;9.30;;;;;;;16.72;61.42;99535.61;1760004;81;25594;-48
2023/03/23 08:20:12;;;;;;;19.20;9.63;;;;;;;16.59;61.99;99525.47;1759964;81;27519;-48
2023/03/23 08:22:40;;;;;;;21.12;9.73;;;;;;;16.53;61.62;99521.50;1759885;81;25552;-48
2023/03/23 08:25:11;;;;;;;13.53;9.85;;;;;;;16.58;59.86;99521.73;1760231;81;25417;-48
2023/03/23 08:27:43;;;;;;;17.98;10.15;;;;;;;16.56;60.66;99514.50;1736318;81;25646;-49
2023/03/23 08:30:17;;;;;;;17.65;9.20;;;;;;;16.38;59.68;99510.94;1760022;81;25461;-49
2023/03/23 08:32:44;;;;;;;20.70;9.78;;;;;;;16.26;59.51;99511.15;1759980;81;27307;-51
2023/03/23 08:35:11;;;;;;;14.00;8.73;;;;;;;16.51;62.04;99502.53;1759786;81;25554;-49
2023/03/23 08:37:39;;;;;;;14.15;8.13;;;;;;;17.09;56.06;99505.47;1759977;81;25563;-48
2023/03/23 08:40:08;;;;;;;11.33;8.18;;;;;;;17.35;58.77;99501.29;1759925;81;25551;-48
2023/03/23 08:42:35;;;;;;;15.25;8.95;;;;;;;17.76;59.29;99492.89;1759997;81;25641;-49
2023/03/23 08:45:03;;;;;;;11.93;8.08;;;;;;;18.48;59.17;99494.27;1759931;81;27422;-48
2023/03/23 08:47:30;;;;;;;14.70;7.33;;;;;;;19.12;58.11;99489.72;1759867;81;25630;-48
2023/03/23 08:49:57;;;;;;;11.80;8.20;;;;;;;19.72;56.08;99490.25;1759986;81;25647;-48
2023/03/23 08:52:23;;;;;;;14.80;8.08;;;;;;;19.83;51.12;99500.66;1759858;81;27479;-48
2023/03/23 08:54:49;;;;;;;13.03;7.30;;;;;;;19.62;53.63;99485.53;1759967;81;25644;-50
2023/03/23 08:57:15;;;;;;;11.85;7.33;;;;;;;19.54;52.44;99490.20;1759960;81;27438;-48
2023/03/23 08:59:42;;;;;;;14.35;7.35;;;;;;;19.23;49.47;99485.63;1759843;81;25494;-48
2023/03/23 09:02:14;;;;;;;8.23;6.75;;;;;;;18.84;49.36;99485.67;1759921;81;25638;-48
2023/03/23 09:04:45;;;;;;;12.98;7.60;;;;;;;18.55;50.88;99505.25;1759961;81;26013;-47
2023/03/23 09:07:14;;;;;;;12.43;6.95;;;;;;;18.25;49.95;99508.17;1758859;81;25576;-47
2023/03/23 09:09:42;;;;;;;10.32;7.15;;;;;;;17.96;50.68;99508.53;1759974;81;27325;-47
2023/03/23 09:12:10;;;;;;;13.78;7.15;;;;;;;17.71;51.05;99503.61;1759939;81;25422;-47
2023/03/23 09:14:38;;;;;;;11.55;7.12;;;;;;;17.47;51.50;99514.47;1759931;81;25592;-49
2023/03/23 09:17:07;;;;;;;12.58;7.12;;;;;;;17.24;52.25;99503.70;1759936;81;25936;-49
2023/03/23 09:19:34;;;;;;;10.88;6.97;;;;;;;17.04;52.03;99501.70;1760064;81;25439;-48
2023/03/23 09:22:02;;;;;;;13.30;7.08;;;;;;;16.83;52.60;99501.61;1759920;81;28020;-48
2023/03/23 09:24:29;;;;;;;13.80;7.00;;;;;;;16.73;54.12;99498.16;1759941;81;25622;-48
2023/03/23 09:26:55;;;;;;;13.15;6.95;;;;;;;16.64;54.15;99502.53;1759899;81;25538;-48
2023/03/23 09:29:21;;;;;;;10.45;5.85;;;;;;;16.54;53.37;99499.07;1759965;81;25468;-49
2023/03/23 09:31:47;;;;;;;9.13;6.05;;;;;;;16.40;53.34;99505.89;1760089;81;25562;-51
2023/03/23 09:34:17;;;;;;;9.13;5.62;;;;;;;16.27;53.38;99502.38;1760083;80;27404;-51
2023/03/23 09:36:44;;;;;;;9.78;6.08;;;;;;;16.19;52.72;99498.18;1746329;81;25372;-52
2023/03/23 09:39:11;;;;;;;10.45;5.62;;;;;;;16.10;53.67;99496.27;1740908;82;25642;-51
2023/03/23 09:42:05;;;;;;;8.03;5.53;;;;;;;16.07;54.52;99488.80;1740872;82;25895;-52
2023/03/23 09:45:02;;;;;;;16.90;5.62;;;;;;;16.12;54.89;99486.36;1740738;81;25364;-51
2023/03/23 09:47:58;;;;;;;9.43;5.65;;;;;;;16.16;55.14;99487.99;1740990;82;27998;-51
2023/03/23 09:50:32;;;;;;;9.30;5.12;;;;;;;16.19;54.93;99482.37;1766818;81;25708;-53
2023/03/23 09:53:04;;;;;;;8.53;5.92;;;;;;;16.29;54.76;99478.23;1766921;81;25478;-50
2023/03/23 09:55:31;;;;;;;14.05;5.87;;;;;;;16.28;52.41;99472.00;1765937;81;25582;-53
2023/03/23 09:58:20;;;;;;;9.00;5.20;;;;;;;16.25;53.86;99471.36;1766980;81;25639;-50
2023/03/23 10:01:07;;;;;;;7.37;5.25;;;;;;;16.29;53.69;99457.18;1766966;81;27336;-50
2023/03/23 10:03:43;;;;;;;9.68;5.12;;;;;;;16.36;53.84;99457.86;1766868;81;25441;-51
2023/03/23 10:06:18;;;;;;;9.20;5.42;;;;;;;16.40;51.69;99460.09;1766913;81;25508;-50
2023/03/23 10:08:51;;;;;;;10.00;5.60;;;;;;;16.48;53.01;99452.77;1766915;81;25665;-50
2023/03/23 10:12:05;;;;;;;10.55;5.70;;;;;;;16.55;51.82;99465.95;1766940;81;25516;-50
2023/03/23 10:14:53;;;;;;;11.45;5.60;;;;;;;16.61;52.74;99455.48;1765916;81;27335;-50
2023/03/23 10:17:31;;;;;;;9.33;5.20;;;;;;;16.87;51.76;99468.31;1766828;81;25684;-50
2023/03/23 10:20:33;;;;;;;12.50;4.95;;;;;;;17.02;50.94;99457.58;1765637;81;25430;-52
2023/03/23 10:23:49;;;;;;;10.48;5.70;;;;;;;17.31;50.60;99458.67;1766899;81;25666;-50
2023/03/23 10:26:51;;;;;;;8.85;5.40;;;;;;;17.95;48.86;99450.89;1693409;84;25513;-50
2023/03/23 10:29:43;;;;;;;9.88;5.92;;;;;;;19.33;50.20;99434.75;1686593;84;27327;-50
2023/03/23 10:32:15;;;;;;;7.60;4.78;;;;;;;20.44;46.98;99449.82;1674760;85;25574;-49
2023/03/23 10:34:56;;;;;;;9.53;4.85;;;;;;;21.02;45.33;99446.30;1687452;85;25664;-52
2023/03/23 10:37:37;;;;;;;9.53;5.35;;;;;;;21.68;43.32;99438.47;1671068;84;25490;-50
2023/03/23 10:40:09;;;;;;;9.15;5.12;;;;;;;21.96;42.55;99427.80;1652011;86;25589;-52
2023/03/23 10:42:39;;;;;;;8.20;4.95;;;;;;;21.90;39.81;99434.95;1669064;86;27249;-50
2023/03/23 10:45:26;;;;;;;6.90;5.00;;;;;;;21.64;41.74;99437.13;1669212;86;25459;-52
2023/03/23 10:48:21;;;;;;;5.15;4.33;;;;;;;21.36;39.97;99429.81;1651951;86;25655;-52
2023/03/23 10:50:53;;;;;;;8.23;4.92;;;;;;;21.18;40.57;99422.47;1669257;86;27459;-51
2023/03/23 10:53:32;;;;;;;9.00;4.75;;;;;;;21.42;38.58;99448.23;1669278;86;25627;-50
2023/03/23 10:55:59;;;;;;;7.67;4.87;;;;;;;21.37;40.10;99429.41;1652088;86;27885;-49
2023/03/23 10:58:30;;;;;;;7.85;4.95;;;;;;;21.26;41.46;99425.34;1669216;86;25666;-50
2023/03/23 11:00:58;;;;;;;7.08;5.40;;;;;;;21.13;41.11;99427.02;1669356;86;25474;-49
2023/03/23 11:03:48;;;;;;;11.18;5.17;;;;;;;21.01;40.12;99424.70;1689398;83;25502;-51
2023/03/23 11:06:26;;;;;;;9.53;5.58;;;;;;;21.00;39.20;99432.77;1737001;82;25486;-51
2023/03/23 11:09:05;;;;;;;9.70;5.50;;;;;;;20.99;40.98;99435.32;1712038;82;27484;-50
2023/03/23 11:11:36;;;;;;;8.48;5.60;;;;;;;21.00;40.28;99425.91;1735396;82;25401;-48
2023/03/23 11:14:27;;;;;;;8.08;5.80;;;;;;;20.81;39.39;99429.92;1736739;82;25555;-50
2023/03/23 11:17:00;;;;;;;9.90;5.70;;;;;;;20.68;40.87;99415.83;1727040;82;25595;-50
2023/03/23 11:19:31;;;;;;;8.05;4.67;;;;;;;20.61;40.86;99408.97;1736903;82;25631;-51
2023/03/23 11:22:07;;;;;;;8.95;4.50;;;;;;;20.55;39.45;99407.80;1736897;82;27924;-49
2023/03/23 11:24:39;;;;;;;6.72;4.47;;;;;;;20.42;41.15;99401.38;1722252;82;25440;-50
2023/03/23 11:27:08;;;;;;;7.28;4.22;;;;;;;20.42;39.93;99410.22;1736122;82;25424;-54
2023/03/23 11:29:38;;;;;;;;;;;;;;;20.40;40.70;99411.98;1739424;82;26028;-54
2023/03/23 11:32:12;;;;;;;6.92;4.78;;;;;;;20.47;40.44;99405.69;1736093;82;25565;-52
2023/03/23 11:34:53;;;;;;;5.65;4.65;;;;;;;20.62;39.94;99405.86;1736898;82;27261;-52
2023/03/23 11:37:36;;;;;;;5.78;3.95;;;;;;;20.81;40.97;99396.95;1739591;81;25617;-52
2023/03/23 11:40:12;;;;;;;7.30;4.50;;;;;;;21.36;41.62;99390.70;1740909;82;25603;-53
2023/03/23 11:43:01;;;;;;;6.22;4.25;;;;;;;21.80;39.28;99382.31;1740628;81;25615;-54
2023/03/23 11:45:41;;;;;;;7.58;5.12;;;;;;;22.22;38.96;99371.88;1740962;82;25575;-51
2023/03/23 11:48:34;;;;;;;5.67;3.67;;;;;;;22.74;38.62;99382.09;1711433;82;27386;-52